Time;durP1;ratioP1;P1;durP2;ratioP2;P2;SDS_P1;SDS_P2;PMS_P1;PMS_P2;Temp;Humidity;BMP_temperature;BMP_pressure;BME280_temperature;BME280_humidity;BME280_pressure;Samples;Min_cycle;Max_cycle;Signal;HPM_P1;HPM_P2
2022/10/05 00:01:29;;;;;;;9.73;6.05;;;15.00;99.90;;;;;;4937503;29;20182;-82
2022/10/05 00:04:17;;;;;;;9.88;5.57;;;14.90;99.90;;;;;;4938098;29;20048;-82
2022/10/05 00:07:07;;;;;;;7.88;5.55;;;14.90;99.90;;;;;;4920776;29;20055;-82
2022/10/05 00:09:33;;;;;;;7.57;5.28;;;15.00;99.90;;;;;;4921293;29;20095;-82
2022/10/05 00:11:58;;;;;;;11.45;5.82;;;15.00;99.90;;;;;;4937761;29;20043;-80
2022/10/05 00:14:30;;;;;;;8.18;5.28;;;15.00;99.90;;;;;;4938524;29;20043;-82
2022/10/05 00:16:56;;;;;;;12.52;6.20;;;15.00;99.90;;;;;;4921510;29;20051;-82
2022/10/05 00:19:31;;;;;;;9.75;5.20;;;15.00;99.90;;;;;;4920463;29;20055;-81
2022/10/05 00:22:12;;;;;;;8.85;5.40;;;15.10;99.90;;;;;;4921063;29;20059;-82
2022/10/05 00:24:38;;;;;;;8.48;4.65;;;15.00;99.90;;;;;;4922435;29;20080;-81
2022/10/05 00:27:16;;;;;;;8.35;5.68;;;15.00;99.90;;;;;;4937293;29;20155;-81
2022/10/05 00:29:42;;;;;;;7.93;5.47;;;15.00;99.90;;;;;;4938456;29;20496;-82
2022/10/05 00:32:09;;;;;;;10.43;6.10;;;15.00;99.90;;;;;;4921931;29;20138;-81
2022/10/05 00:34:35;;;;;;;8.07;5.80;;;14.90;99.90;;;;;;4919843;29;20521;-81
2022/10/05 00:37:00;;;;;;;8.80;5.97;;;15.00;99.90;;;;;;4937534;29;20083;-81
2022/10/05 00:39:27;;;;;;;9.02;5.57;;;15.00;99.90;;;;;;4938249;29;20052;-81
2022/10/05 00:42:10;;;;;;;9.23;5.30;;;15.00;99.90;;;;;;4937464;29;20070;-80
2022/10/05 00:44:57;;;;;;;8.48;5.47;;;14.90;99.90;;;;;;4936983;29;20062;-81
2022/10/05 00:47:43;;;;;;;8.23;4.95;;;15.00;99.90;;;;;;4903644;29;20462;-81
2022/10/05 00:50:28;;;;;;;8.40;4.68;;;15.00;99.90;;;;;;4904306;29;20214;-81
2022/10/05 00:53:23;;;;;;;6.90;4.22;;;15.00;99.90;;;;;;4920662;29;20099;-81
2022/10/05 00:56:10;;;;;;;8.10;4.47;;;15.00;99.90;;;;;;4920190;29;20447;-81
2022/10/05 00:59:04;;;;;;;7.13;3.70;;;15.00;99.90;;;;;;4919829;29;20138;-82
2022/10/05 01:01:39;;;;;;;6.57;3.90;;;15.00;99.90;;;;;;4937161;29;20054;-81
2022/10/05 01:04:42;;;;;;;5.07;3.47;;;15.00;99.90;;;;;;4919845;29;20044;-81
2022/10/05 01:07:08;;;;;;;8.80;3.78;;;15.00;99.90;;;;;;4919460;29;20052;-81
2022/10/05 01:10:18;;;;;;;5.00;3.00;;;15.00;99.90;;;;;;4919713;29;20059;-81
2022/10/05 01:13:04;;;;;;;7.47;3.22;;;15.10;99.90;;;;;;4826073;29;20146;-81
2022/10/05 01:15:35;;;;;;;7.22;3.47;;;15.00;99.90;;;;;;4919449;29;20063;-82
2022/10/05 01:18:25;;;;;;;6.43;3.40;;;15.00;99.90;;;;;;4920501;29;20134;-81
2022/10/05 01:20:59;;;;;;;5.55;3.15;;;15.00;99.90;;;;;;4919753;29;20054;-81
2022/10/05 01:23:24;;;;;;;6.07;3.25;;;15.00;99.90;;;;;;4937474;29;20103;-81
2022/10/05 01:26:19;;;;;;;5.22;3.25;;;15.10;99.90;;;;;;4937024;29;20048;-82
2022/10/05 01:28:53;;;;;;;4.53;2.88;;;15.00;99.90;;;;;;4937031;29;20059;-81
2022/10/05 01:31:34;;;;;;;5.28;3.10;;;15.10;99.90;;;;;;4937949;29;20047;-82
2022/10/05 01:34:18;;;;;;;5.38;3.08;;;15.00;99.90;;;;;;4919731;29;20063;-82
2022/10/05 01:37:06;;;;;;;7.75;3.38;;;15.00;99.90;;;;;;4919612;29;20055;-82
2022/10/05 01:39:32;;;;;;;6.43;3.35;;;15.10;99.90;;;;;;4937481;29;20056;-82
2022/10/05 01:42:20;;;;;;;6.45;3.28;;;15.00;99.90;;;;;;4938164;29;20471;-81
2022/10/05 01:45:21;;;;;;;6.75;3.00;;;15.00;99.90;;;;;;4919979;29;20060;-81
2022/10/05 01:47:57;;;;;;;5.10;3.17;;;15.00;99.90;;;;;;4919906;29;20048;-81
2022/10/05 01:50:25;;;;;;;6.65;3.33;;;15.00;99.90;;;;;;4919588;29;20105;-82
2022/10/05 01:53:21;;;;;;;6.78;3.35;;;15.00;99.90;;;;;;4918903;29;20051;-81
2022/10/05 01:56:11;;;;;;;8.50;3.50;;;15.00;99.90;;;;;;4919868;29;20051;-81
2022/10/05 01:59:17;;;;;;;7.00;3.33;;;15.00;99.90;;;;;;4920220;29;20138;-81
2022/10/05 02:02:03;;;;;;;5.07;3.58;;;15.00;99.90;;;;;;4873770;29;20150;-82
2022/10/05 02:04:36;;;;;;;7.32;3.83;;;15.00;99.90;;;;;;4935985;29;20098;-82
2022/10/05 02:07:07;;;;;;;7.57;3.90;;;15.00;99.90;;;;;;4919352;29;20055;-82
2022/10/05 02:09:38;;;;;;;6.05;3.97;;;15.00;99.90;;;;;;4936867;29;20051;-81
2022/10/05 02:12:09;;;;;;;7.20;3.83;;;14.90;99.90;;;;;;4919804;29;20122;-81
2022/10/05 02:14:40;;;;;;;6.47;4.05;;;14.90;99.90;;;;;;4937180;29;20044;-81
2022/10/05 02:17:13;;;;;;;7.43;4.07;;;14.90;99.90;;;;;;4936484;29;20054;-81
2022/10/05 02:19:51;;;;;;;6.93;4.63;;;15.00;99.90;;;;;;4922918;29;20360;-82
2022/10/05 02:22:40;;;;;;;8.27;4.43;;;14.90;99.90;;;;;;4922788;29;20047;-82
2022/10/05 02:25:20;;;;;;;9.60;4.63;;;15.00;99.90;;;;;;4939811;29;20051;-82
2022/10/05 02:27:53;;;;;;;10.63;4.90;;;14.90;99.90;;;;;;4923534;29;20051;-81
2022/10/05 02:30:19;;;;;;;6.25;4.22;;;14.90;99.90;;;;;;4939875;29;20399;-81
2022/10/05 02:32:56;;;;;;;9.23;4.55;;;14.90;99.90;;;;;;4923940;29;20509;-82
2022/10/05 02:35:22;;;;;;;7.05;4.80;;;14.90;99.90;;;;;;4922745;29;20091;-81
2022/10/05 02:38:20;;;;;;;9.32;4.63;;;14.80;99.90;;;;;;4940986;29;20044;-82
2022/10/05 02:41:17;;;;;;;8.90;4.68;;;14.80;99.90;;;;;;4872266;29;20499;-81
2022/10/05 02:44:19;;;;;;;8.57;4.75;;;14.90;99.90;;;;;;4924048;29;20051;-82
2022/10/05 02:47:11;;;;;;;7.07;4.50;;;14.90;99.90;;;;;;4903388;29;20122;-82
2022/10/05 02:49:43;;;;;;;7.30;4.63;;;14.90;99.90;;;;;;4923780;29;20154;-81
2022/10/05 02:52:32;;;;;;;7.30;4.40;;;14.90;99.90;;;;;;4940777;29;20479;-81
2022/10/05 02:55:04;;;;;;;10.07;5.00;;;14.90;99.90;;;;;;4922866;29;20103;-82
2022/10/05 02:57:45;;;;;;;6.78;4.40;;;14.90;99.90;;;;;;4939436;29;20051;-81
2022/10/05 03:00:17;;;;;;;7.18;4.25;;;14.90;99.90;;;;;;4920333;29;20082;-81
2022/10/05 03:02:54;;;;;;;8.25;4.20;;;14.90;99.90;;;;;;4922024;29;20135;-81
2022/10/05 03:05:23;;;;;;;6.45;4.15;;;14.90;99.90;;;;;;4922316;29;20090;-81
2022/10/05 03:08:02;;;;;;;8.85;4.63;;;14.90;99.90;;;;;;4922265;29;20130;-82
2022/10/05 03:10:46;;;;;;;5.85;3.85;;;14.90;99.90;;;;;;4921511;29;20386;-81
2022/10/05 03:13:44;;;;;;;9.60;3.90;;;14.90;99.90;;;;;;4922125;29;20576;-82
2022/10/05 03:16:43;;;;;;;6.40;3.20;;;14.80;99.90;;;;;;4921845;29;20929;-82
2022/10/05 03:19:21;;;;;;;6.80;3.00;;;14.90;99.90;;;;;;4938854;29;20056;-81
2022/10/05 03:22:13;;;;;;;6.63;3.47;;;14.90;99.90;;;;;;4921564;29;20056;-81
2022/10/05 03:24:53;;;;;;;6.90;3.30;;;14.90;99.90;;;;;;4921890;29;20526;-82
2022/10/05 03:27:51;;;;;;;6.82;3.40;;;15.00;99.90;;;;;;4922391;29;20102;-81
2022/10/05 03:30:22;;;;;;;5.68;3.20;;;14.90;99.90;;;;;;4939262;29;20055;-81
2022/10/05 03:33:10;;;;;;;5.88;3.40;;;14.90;99.90;;;;;;4921126;29;20047;-82
2022/10/05 03:35:59;;;;;;;4.75;2.85;;;14.90;99.90;;;;;;4922681;29;20051;-81
2022/10/05 03:38:36;;;;;;;5.00;3.08;;;15.00;99.90;;;;;;4921913;29;20107;-81
2022/10/05 03:41:43;;;;;;;6.32;3.20;;;14.90;99.90;;;;;;4922299;29;20131;-82
2022/10/05 03:44:29;;;;;;;6.70;3.25;;;15.00;99.90;;;;;;4920652;29;20066;-81
2022/10/05 03:47:07;;;;;;;5.47;2.47;;;14.90;99.90;;;;;;4921318;29;20163;-82
2022/10/05 03:49:51;;;;;;;4.63;2.67;;;14.90;99.90;;;;;;4921636;29;20050;-81
2022/10/05 03:52:22;;;;;;;5.10;2.50;;;15.00;99.90;;;;;;4921611;29;20491;-82
2022/10/05 03:54:54;;;;;;;6.82;2.40;;;14.90;99.90;;;;;;4921772;29;20051;-81
2022/10/05 03:57:24;;;;;;;4.32;2.42;;;14.90;99.90;;;;;;4939642;29;20048;-81
2022/10/05 04:00:30;;;;;;;5.13;2.90;;;14.90;99.90;;;;;;4921218;29;20503;-81
2022/10/05 04:03:11;;;;;;;4.72;2.40;;;15.00;99.90;;;;;;4938689;29;20059;-81
2022/10/05 04:06:07;;;;;;;5.07;2.50;;;15.00;99.90;;;;;;4938654;29;20051;-82
2022/10/05 04:08:49;;;;;;;4.38;1.92;;;15.00;99.90;;;;;;4920618;29;20135;-81
2022/10/05 04:11:22;;;;;;;5.63;2.55;;;14.90;99.90;;;;;;4922078;29;20403;-82
2022/10/05 04:14:03;;;;;;;4.93;1.85;;;14.90;99.90;;;;;;4922118;29;20376;-81
2022/10/05 04:17:01;;;;;;;3.58;2.03;;;15.00;99.90;;;;;;4939467;29;20489;-84
2022/10/05 04:19:52;;;;;;;4.68;1.92;;;14.90;99.90;;;;;;4922365;29;20498;-82
2022/10/05 04:22:26;;;;;;;5.07;2.05;;;14.90;99.90;;;;;;4921757;29;20066;-83
2022/10/05 04:25:01;;;;;;;5.68;2.10;;;15.00;99.90;;;;;;4938903;29;20506;-81
2022/10/05 04:27:35;;;;;;;5.97;2.03;;;15.00;99.90;;;;;;4922312;29;20525;-81
2022/10/05 04:30:10;;;;;;;7.10;1.83;;;15.00;99.90;;;;;;4921649;29;20052;-82
2022/10/05 04:32:41;;;;;;;3.80;1.98;;;14.90;99.90;;;;;;4938272;29;20094;-82
2022/10/05 04:35:18;;;;;;;4.55;1.92;;;14.90;99.90;;;;;;4922360;29;20054;-82
2022/10/05 04:37:59;;;;;;;4.93;2.00;;;15.00;99.90;;;;;;4937894;29;20431;-81
2022/10/05 04:40:43;;;;;;;4.18;1.52;;;14.90;99.90;;;;;;4920372;29;20483;-81
2022/10/05 04:43:18;;;;;;;4.50;1.83;;;14.90;99.90;;;;;;4919862;29;20127;-83
2022/10/05 04:46:02;;;;;;;3.47;1.75;;;14.90;99.90;;;;;;4920304;29;20063;-82
2022/10/05 04:48:56;;;;;;;4.57;1.70;;;14.90;99.90;;;;;;4920353;29;20130;-82
2022/10/05 04:51:37;;;;;;;3.97;1.60;;;15.00;99.90;;;;;;4920316;29;20055;-82
2022/10/05 04:54:19;;;;;;;3.97;1.65;;;15.00;99.90;;;;;;4936782;29;20062;-83
2022/10/05 04:56:51;;;;;;;4.40;1.73;;;14.90;99.90;;;;;;4920470;29;20475;-82
2022/10/05 04:59:28;;;;;;;5.18;1.70;;;14.90;99.90;;;;;;4919594;29;20179;-83
2022/10/05 05:02:15;;;;;;;3.22;1.55;;;14.90;99.90;;;;;;4920241;29;20047;-82
2022/10/05 05:05:19;;;;;;;4.07;1.63;;;14.90;99.90;;;;;;4919760;29;20048;-82
2022/10/05 05:08:11;;;;;;;3.60;1.65;;;14.90;99.90;;;;;;4919922;29;20055;-81
2022/10/05 05:11:10;;;;;;;3.15;1.85;;;14.90;99.90;;;;;;4920698;29;20059;-81
2022/10/05 05:13:54;;;;;;;4.47;2.15;;;14.90;99.90;;;;;;4937232;29;20415;-81
2022/10/05 05:16:39;;;;;;;4.70;2.30;;;15.00;99.90;;;;;;4936777;29;20098;-81
2022/10/05 05:19:26;;;;;;;4.38;2.17;;;14.90;99.90;;;;;;4920651;29;20056;-82
2022/10/05 05:22:26;;;;;;;4.35;2.42;;;15.00;99.90;;;;;;4937054;29;20044;-83
2022/10/05 05:25:20;;;;;;;6.30;2.40;;;15.00;99.90;;;;;;4937513;29;20055;-82
2022/10/05 05:27:54;;;;;;;5.93;2.40;;;14.90;99.90;;;;;;4910576;29;20063;-81
2022/10/05 05:30:46;;;;;;;4.80;2.42;;;14.90;99.90;;;;;;4937206;29;20135;-81
2022/10/05 05:33:42;;;;;;;5.78;2.72;;;14.90;99.90;;;;;;4900329;29;20052;-80
2022/10/05 05:36:23;;;;;;;4.85;2.53;;;14.90;99.90;;;;;;4918631;29;20067;-82
2022/10/05 05:39:10;;;;;;;5.15;2.72;;;14.90;99.90;;;;;;4936545;29;20090;-82
2022/10/05 05:42:00;;;;;;;8.52;3.22;;;14.80;99.90;;;;;;4920151;29;20090;-82
2022/10/05 05:44:38;;;;;;;6.53;3.28;;;14.80;99.90;;;;;;4919541;29;20406;-82
2022/10/05 05:47:28;;;;;;;7.35;3.10;;;14.80;99.90;;;;;;4920337;29;20059;-82
2022/10/05 05:50:09;;;;;;;6.40;3.30;;;14.80;99.90;;;;;;4936632;29;20478;-82
2022/10/05 05:52:41;;;;;;;7.55;3.65;;;14.80;99.90;;;;;;4919268;29;20475;-82
2022/10/05 05:55:21;;;;;;;7.43;3.17;;;14.80;99.90;;;;;;4921292;29;20044;-81
2022/10/05 05:58:02;;;;;;;8.73;3.78;;;14.80;99.90;;;;;;4921664;29;20063;-81
2022/10/05 06:00:35;;;;;;;6.82;4.00;;;14.70;99.90;;;;;;4922551;29;20056;-81
2022/10/05 06:03:24;;;;;;;6.25;4.47;;;14.80;99.90;;;;;;4922493;29;20047;-81
2022/10/05 06:06:15;;;;;;;7.40;4.07;;;14.80;99.90;;;;;;4922784;29;20584;-81
2022/10/05 06:08:55;;;;;;;7.22;4.18;;;14.80;99.90;;;;;;4921773;29;20063;-81
2022/10/05 06:11:26;;;;;;;8.05;4.68;;;14.70;99.90;;;;;;4922335;29;20130;-82
2022/10/05 06:13:53;;;;;;;7.90;4.80;;;14.70;99.90;;;;;;4939427;29;20103;-81
2022/10/05 06:16:37;;;;;;;8.43;4.70;;;14.70;99.90;;;;;;4922096;29;20514;-81
2022/10/05 06:19:09;;;;;;;7.93;4.32;;;14.70;99.90;;;;;;4922350;29;20122;-81
2022/10/05 06:21:59;;;;;;;8.40;4.47;;;14.70;99.90;;;;;;4939379;29;20048;-81
2022/10/05 06:24:37;;;;;;;7.70;5.03;;;14.70;99.90;;;;;;4922070;29;20055;-84
2022/10/05 06:27:34;;;;;;;7.90;4.90;;;14.70;99.90;;;;;;4922123;29;20062;-83
2022/10/05 06:30:10;;;;;;;7.03;4.78;;;14.70;99.90;;;;;;4922273;29;20130;-83
2022/10/05 06:32:54;;;;;;;9.90;5.00;;;14.70;99.90;;;;;;4922040;29;20052;-81
2022/10/05 06:36:03;;;;;;;9.27;5.30;;;14.70;99.90;;;;;;4921948;29;20102;-83
2022/10/05 06:38:44;;;;;;;7.97;4.72;;;14.70;99.90;;;;;;4921767;29;20506;-81
2022/10/05 06:41:28;;;;;;;10.00;4.80;;;14.70;99.90;;;;;;4939009;29;20071;-81
2022/10/05 06:44:16;;;;;;;7.70;4.70;;;14.80;99.90;;;;;;4939012;29;20052;-80
2022/10/05 06:47:19;;;;;;;7.32;4.93;;;14.80;99.90;;;;;;4921741;29;20130;-81
2022/10/05 06:50:34;;;;;;;6.65;4.82;;;14.80;99.90;;;;;;4910158;29;20051;-81
2022/10/05 06:53:23;;;;;;;9.90;5.43;;;14.80;99.90;;;;;;4872198;29;20057;-79
2022/10/05 06:56:17;;;;;;;10.10;4.30;;;14.90;99.90;;;;;;4883796;29;20080;-80
2022/10/05 06:59:14;;;;;;;9.07;4.75;;;14.90;99.90;;;;;;4896116;29;20087;-80
2022/10/05 07:02:08;;;;;;;8.07;4.10;;;14.90;99.90;;;;;;4919300;29;20063;-80
2022/10/05 07:04:39;;;;;;;7.85;4.05;;;14.90;99.90;;;;;;4902293;29;20044;-80
2022/10/05 07:07:13;;;;;;;7.57;4.38;;;15.00;99.90;;;;;;4901484;29;20496;-80
2022/10/05 07:10:13;;;;;;;8.95;4.00;;;15.00;99.90;;;;;;4902662;29;20056;-82
2022/10/05 07:13:06;;;;;;;7.40;3.95;;;15.00;99.90;;;;;;4902360;29;20048;-81
2022/10/05 07:16:00;;;;;;;5.60;4.10;;;15.00;99.90;;;;;;4902273;29;20230;-80
2022/10/05 07:18:48;;;;;;;6.75;4.18;;;15.00;99.90;;;;;;4919025;29;20484;-81
2022/10/05 07:21:38;;;;;;;7.15;4.05;;;15.10;99.90;;;;;;4919179;29;20048;-80
2022/10/05 07:24:29;;;;;;;5.35;3.25;;;15.00;99.90;;;;;;4902318;29;20048;-80
2022/10/05 07:27:18;;;;;;;8.15;3.90;;;15.10;99.90;;;;;;4901809;29;20052;-81
2022/10/05 07:30:05;;;;;;;6.95;3.83;;;15.10;99.90;;;;;;4902166;29;20487;-79
2022/10/05 07:32:53;;;;;;;7.10;3.33;;;15.10;99.90;;;;;;4901842;29;20068;-82
2022/10/05 07:38:21;;;;;;;5.95;2.90;;;15.20;99.90;;;;;;4901643;29;20139;-81
2022/10/05 07:40:56;;;;;;;7.10;3.10;;;15.30;99.90;;;;;;4918635;29;20052;-81
2022/10/05 07:43:40;;;;;;;5.93;3.25;;;15.30;99.90;;;;;;4901712;29;20044;-80
2022/10/05 07:46:35;;;;;;;6.15;4.32;;;15.30;99.90;;;;;;4901595;29;20052;-82
2022/10/05 07:49:20;;;;;;;6.13;3.03;;;15.30;99.90;;;;;;4875412;29;20063;-80
2022/10/05 07:51:59;;;;;;;4.70;2.92;;;15.40;99.90;;;;;;4901781;29;20103;-81
2022/10/05 07:55:11;;;;;;;7.57;3.10;;;15.40;99.90;;;;;;4918689;29;20048;-80
2022/10/05 07:58:03;;;;;;;6.28;2.70;;;15.50;99.90;;;;;;4918291;29;20111;-80
2022/10/05 08:01:05;;;;;;;5.22;2.65;;;15.50;99.90;;;;;;4918138;29;20111;-81
2022/10/05 08:03:54;;;;;;;4.75;2.60;;;15.60;99.90;;;;;;4901686;29;20055;-83
2022/10/05 08:06:44;;;;;;;4.57;2.97;;;15.50;99.90;;;;;;4937228;29;20044;-81
2022/10/05 08:09:17;;;;;;;5.47;2.50;;;15.50;99.90;;;;;;4920326;29;20047;-81
2022/10/05 08:11:58;;;;;;;5.68;2.28;;;15.60;99.90;;;;;;4937430;29;20055;-81
2022/10/05 08:14:33;;;;;;;4.57;2.40;;;15.70;99.90;;;;;;4937118;29;20064;-81
2022/10/05 08:17:04;;;;;;;4.15;1.95;;;15.80;99.90;;;;;;4919561;29;20048;-82
2022/10/05 08:19:42;;;;;;;5.00;2.38;;;15.90;99.90;;;;;;4937143;29;20052;-81
2022/10/05 08:22:17;;;;;;;4.07;2.33;;;15.90;99.90;;;;;;4937049;29;20043;-81
2022/10/05 08:24:54;;;;;;;7.30;2.35;;;15.90;99.90;;;;;;4937040;29;20044;-81
2022/10/05 08:27:20;;;;;;;3.70;1.90;;;16.00;99.90;;;;;;4919827;29;20103;-80
2022/10/05 08:29:57;;;;;;;4.55;2.08;;;16.00;99.90;;;;;;4936781;29;20047;-80
2022/10/05 08:32:57;;;;;;;3.58;2.05;;;16.10;99.90;;;;;;4919658;29;20106;-81
2022/10/05 08:35:34;;;;;;;5.13;1.80;;;16.20;99.90;;;;;;4919665;29;20082;-80
2022/10/05 08:38:06;;;;;;;3.60;1.70;;;16.20;99.90;;;;;;4936476;29;20044;-82
2022/10/05 08:40:53;;;;;;;4.13;1.98;;;16.20;99.90;;;;;;4935354;29;20095;-82
2022/10/05 08:43:51;;;;;;;6.20;1.70;;;16.20;99.90;;;;;;4935190;29;20122;-81
2022/10/05 08:47:02;;;;;;;2.60;1.38;;;16.20;99.90;;;;;;4900768;29;20080;-81
2022/10/05 08:50:06;;;;;;;3.22;1.63;;;16.30;99.90;;;;;;4866545;29;20552;-81
2022/10/05 08:52:43;;;;;;;3.55;1.40;;;16.40;99.90;;;;;;4905866;29;20575;-80
2022/10/05 08:55:09;;;;;;;2.95;1.20;;;16.40;99.90;;;;;;4900622;29;20083;-81
2022/10/05 08:57:52;;;;;;;4.38;1.30;;;16.60;99.90;;;;;;4899241;29;20087;-82
2022/10/05 09:00:18;;;;;;;3.97;1.38;;;16.60;99.90;;;;;;4915538;29;20393;-84
2022/10/05 09:03:08;;;;;;;2.38;1.00;;;16.60;99.90;;;;;;4916910;29;20511;-83
2022/10/05 09:06:13;;;;;;;5.07;1.17;;;16.60;99.90;;;;;;4900710;29;20052;-82
2022/10/05 09:09:11;;;;;;;3.13;1.40;;;16.80;99.90;;;;;;4917031;29;20062;-81
2022/10/05 09:11:37;;;;;;;2.92;1.10;;;16.80;99.90;;;;;;4904904;29;20079;-81
2022/10/05 09:14:42;;;;;;;3.08;1.30;;;16.90;99.90;;;;;;4918789;29;20060;-81
2022/10/05 09:17:37;;;;;;;5.35;1.17;;;17.00;99.90;;;;;;4915546;29;20071;-81
2022/10/05 09:20:40;;;;;;;4.65;1.30;;;17.00;99.90;;;;;;4918205;29;20415;-81
2022/10/05 09:23:13;;;;;;;3.70;1.65;;;17.10;99.90;;;;;;4919176;29;20121;-81
2022/10/05 09:25:46;;;;;;;;;;;17.10;99.90;;;;;;4936887;29;20058;-81
2022/10/05 09:28:44;;;;;;;3.75;1.88;;;17.20;99.90;;;;;;4919200;29;19919;-81
2022/10/05 09:31:30;;;;;;;3.10;1.35;;;17.20;99.90;;;;;;4940164;29;20063;-81
2022/10/05 09:34:30;;;;;;;2.92;1.58;;;17.30;99.90;;;;;;4940399;29;20040;-82
2022/10/05 09:37:50;;;;;;;5.07;1.58;;;17.30;99.90;;;;;;4922891;29;20056;-82
2022/10/05 09:40:53;;;;;;;3.88;1.52;;;17.40;99.90;;;;;;4829111;29;20137;-83
2022/10/05 09:43:39;;;;;;;2.20;1.45;;;17.40;99.90;;;;;;4921894;29;20106;-82
2022/10/05 09:46:41;;;;;;;2.85;1.50;;;17.50;99.90;;;;;;4920915;29;20098;-82
2022/10/05 09:49:07;;;;;;;4.75;1.83;;;17.60;99.90;;;;;;4904093;29;20052;-82
2022/10/05 09:51:54;;;;;;;4.85;1.75;;;17.60;99.90;;;;;;4904038;29;20059;-82
2022/10/05 09:54:22;;;;;;;4.43;2.00;;;17.60;99.90;;;;;;4904225;29;20489;-82
2022/10/05 09:57:06;;;;;;;6.32;2.08;;;17.60;99.90;;;;;;4920674;29;20500;-81
2022/10/05 09:59:43;;;;;;;4.40;2.10;;;17.60;99.90;;;;;;4937500;29;20059;-81
2022/10/05 10:02:49;;;;;;;6.43;2.00;;;17.60;99.90;;;;;;4937380;29;20048;-82
2022/10/05 10:05:33;;;;;;;3.03;1.70;;;17.70;99.90;;;;;;4903878;29;20067;-85
2022/10/05 10:08:04;;;;;;;3.88;2.15;;;17.70;99.90;;;;;;4913609;29;20056;-82
2022/10/05 10:11:04;;;;;;;4.82;1.85;;;17.70;99.90;;;;;;4922528;29;20130;-82
2022/10/05 10:13:42;;;;;;;4.47;2.03;;;17.80;99.90;;;;;;4938322;29;20649;-82
2022/10/05 10:16:07;;;;;;;5.38;2.00;;;17.70;99.90;;;;;;4938438;29;20499;-82
2022/10/05 10:18:57;;;;;;;4.25;2.08;;;17.60;99.90;;;;;;4939420;29;20142;-84
2022/10/05 10:21:33;;;;;;;3.35;2.10;;;17.60;99.90;;;;;;4920551;29;20062;-83
2022/10/05 10:24:50;;;;;;;5.80;2.25;;;17.60;99.90;;;;;;4939174;29;20464;-81
2022/10/05 10:27:46;;;;;;;5.10;2.30;;;17.40;99.90;;;;;;4898671;29;20388;-83
2022/10/05 10:30:31;;;;;;;5.18;2.20;;;17.50;99.90;;;;;;4921938;29;20056;-84
2022/10/05 10:33:27;;;;;;;4.45;1.67;;;17.60;99.90;;;;;;4921856;29;20055;-83
2022/10/05 10:36:31;;;;;;;3.78;1.80;;;17.60;99.90;;;;;;4922120;29;20055;-85
2022/10/05 10:39:30;;;;;;;3.55;1.73;;;17.60;99.90;;;;;;4938270;29;20043;-82
2022/10/05 10:42:39;;;;;;;6.85;2.40;;;17.60;99.90;;;;;;4939086;29;20052;-84
2022/10/05 10:45:32;;;;;;;3.92;2.13;;;17.60;99.90;;;;;;4938947;29;20043;-83
2022/10/05 10:48:27;;;;;;;3.80;2.42;;;17.60;99.90;;;;;;4921816;29;20134;-84
2022/10/05 10:51:05;;;;;;;4.15;2.00;;;17.60;99.90;;;;;;4905946;29;20063;-85
2022/10/05 10:54:03;;;;;;;5.30;2.55;;;17.50;99.90;;;;;;4921601;29;20051;-83
2022/10/05 10:56:52;;;;;;;7.72;2.85;;;17.50;99.90;;;;;;4938682;29;20051;-85
2022/10/05 10:59:36;;;;;;;3.92;2.20;;;17.40;99.90;;;;;;4926334;29;20064;-83
2022/10/05 11:02:10;;;;;;;8.00;2.58;;;17.30;99.90;;;;;;4937448;29;20487;-83
2022/10/05 11:04:52;;;;;;;4.38;2.28;;;17.30;99.90;;;;;;4937482;29;20051;-83
2022/10/05 11:07:44;;;;;;;7.18;3.10;;;17.30;99.90;;;;;;4937280;29;20580;-83
2022/10/05 11:10:48;;;;;;;4.67;2.50;;;17.20;99.90;;;;;;4937456;29;20048;-83
2022/10/05 11:14:01;;;;;;;7.82;3.40;;;17.10;99.90;;;;;;4890390;29;20055;-82
2022/10/05 11:16:49;;;;;;;4.72;2.70;;;17.10;99.90;;;;;;4931481;29;20056;-82
2022/10/05 11:19:29;;;;;;;5.20;2.80;;;17.00;99.90;;;;;;4937315;29;20138;-84
2022/10/05 11:22:21;;;;;;;6.82;3.28;;;16.90;99.90;;;;;;4937245;29;20107;-84
2022/10/05 11:25:23;;;;;;;4.88;2.95;;;16.80;99.90;;;;;;4934451;29;20072;-84
2022/10/05 11:27:57;;;;;;;4.95;2.85;;;16.90;99.90;;;;;;4937042;29;20055;-82
2022/10/05 11:30:51;;;;;;;6.93;3.08;;;16.70;99.90;;;;;;4936853;29;20130;-84
2022/10/05 11:33:53;;;;;;;4.82;2.70;;;16.70;99.90;;;;;;4938269;29;20040;-83
2022/10/05 11:36:37;;;;;;;4.88;3.10;;;16.80;99.90;;;;;;4936964;29;20499;-81
2022/10/05 11:39:29;;;;;;;5.18;3.08;;;16.70;99.90;;;;;;4936684;29;20068;-83
2022/10/05 11:42:15;;;;;;;3.72;3.10;;;16.70;99.90;;;;;;4936799;29;20079;-82
2022/10/05 11:45:10;;;;;;;4.43;2.85;;;16.80;99.90;;;;;;4937713;29;20579;-82
2022/10/05 11:48:00;;;;;;;6.10;3.03;;;16.70;99.90;;;;;;4937974;29;20048;-82
2022/10/05 11:51:00;;;;;;;5.35;2.85;;;16.70;99.90;;;;;;4920611;29;20444;-83
2022/10/05 11:53:56;;;;;;;6.95;3.22;;;16.70;99.90;;;;;;4935343;29;20167;-83
2022/10/05 11:56:29;;;;;;;5.82;3.20;;;16.70;99.90;;;;;;4937832;29;20099;-84
2022/10/05 11:59:33;;;;;;;6.72;2.50;;;16.70;99.90;;;;;;4937374;29;20134;-83
2022/10/05 12:02:03;;;;;;;4.97;2.45;;;16.70;99.90;;;;;;4920776;29;20047;-82
2022/10/05 12:04:58;;;;;;;3.92;2.40;;;16.70;99.90;;;;;;4920272;29;20123;-82
2022/10/05 12:07:29;;;;;;;4.20;2.67;;;16.60;99.90;;;;;;4920214;29;20055;-83
2022/10/05 12:10:31;;;;;;;5.30;3.10;;;16.60;99.90;;;;;;4920510;29;20103;-83
2022/10/05 12:13:18;;;;;;;4.25;2.20;;;16.60;99.90;;;;;;4937501;29;20091;-83
2022/10/05 12:15:49;;;;;;;4.00;2.50;;;16.60;99.90;;;;;;4920331;29;20201;-84
2022/10/05 12:18:47;;;;;;;4.65;2.60;;;16.60;99.90;;;;;;4937222;29;20054;-82
2022/10/05 12:21:23;;;;;;;7.07;2.70;;;16.50;99.90;;;;;;4919978;29;20058;-81
2022/10/05 12:23:58;;;;;;;4.72;2.72;;;16.40;99.90;;;;;;4937071;29;20040;-87
2022/10/05 12:26:56;;;;;;;5.05;2.33;;;16.50;99.90;;;;;;4936951;29;20131;-82
2022/10/05 12:29:43;;;;;;;3.35;2.60;;;16.40;99.90;;;;;;4921094;29;20142;-83
2022/10/05 12:32:22;;;;;;;5.20;2.67;;;16.30;99.90;;;;;;4919815;29;20081;-83
2022/10/05 12:35:17;;;;;;;3.28;2.88;;;16.30;99.90;;;;;;4937032;29;20418;-81
2022/10/05 12:37:56;;;;;;;6.53;2.78;;;16.30;99.90;;;;;;4936999;29;20044;-84
2022/10/05 12:40:45;;;;;;;3.50;2.72;;;16.20;99.90;;;;;;4919662;29;20047;-82
2022/10/05 12:43:32;;;;;;;3.70;2.72;;;16.30;99.90;;;;;;4920025;29;20074;-84
2022/10/05 12:46:15;;;;;;;6.22;2.55;;;16.30;99.90;;;;;;4919548;29;20074;-83
2022/10/05 12:48:55;;;;;;;3.88;2.70;;;16.30;99.90;;;;;;4936725;29;20044;-81
2022/10/05 12:51:41;;;;;;;5.57;2.53;;;16.30;99.90;;;;;;4936541;29;20570;-82
2022/10/05 12:54:19;;;;;;;5.75;2.63;;;16.40;99.90;;;;;;4919748;29;20055;-82
2022/10/05 12:56:56;;;;;;;3.75;2.30;;;16.40;99.90;;;;;;4919603;29;20059;-81
2022/10/05 12:59:43;;;;;;;6.82;2.70;;;16.40;99.90;;;;;;4936359;29;20067;-84
2022/10/05 13:02:33;;;;;;;3.80;2.65;;;16.40;99.90;;;;;;4919970;29;20059;-85
2022/10/05 13:05:08;;;;;;;6.53;2.75;;;16.40;99.90;;;;;;4919348;29;20044;-82
2022/10/05 13:07:39;;;;;;;4.50;2.72;;;16.40;99.90;;;;;;4935700;29;20115;-84
2022/10/05 13:10:11;;;;;;;3.92;2.60;;;16.40;99.90;;;;;;4929681;29;20055;-85
2022/10/05 13:12:52;;;;;;;4.85;2.42;;;16.40;99.90;;;;;;4900673;29;20095;-82
2022/10/05 13:15:49;;;;;;;4.60;3.15;;;16.40;99.90;;;;;;4900152;29;20403;-88
2022/10/05 13:18:29;;;;;;;4.20;3.05;;;16.40;99.90;;;;;;4900111;29;20055;-82
2022/10/05 13:21:08;;;;;;;5.82;3.70;;;16.40;99.90;;;;;;4900348;29;20056;-82
2022/10/05 13:23:46;;;;;;;7.35;3.97;;;16.50;99.90;;;;;;4917193;29;20083;-81
2022/10/05 13:26:18;;;;;;;7.70;4.50;;;16.50;99.90;;;;;;4900715;29;20053;-83
2022/10/05 13:29:16;;;;;;;7.83;4.40;;;16.50;99.90;;;;;;4900321;29;20123;-81
2022/10/05 13:31:48;;;;;;;7.72;4.90;;;16.50;99.90;;;;;;4900321;29;20056;-83
2022/10/05 13:34:23;;;;;;;6.90;4.32;;;16.50;99.90;;;;;;4900306;29;20511;-82
2022/10/05 13:37:10;;;;;;;9.38;4.90;;;16.50;99.90;;;;;;4899899;29;20051;-82
2022/10/05 13:40:17;;;;;;;6.25;4.40;;;16.60;99.90;;;;;;4917410;29;20055;-81
2022/10/05 13:42:52;;;;;;;11.32;4.82;;;16.70;99.90;;;;;;4916640;29;20135;-82
2022/10/05 13:45:24;;;;;;;8.27;4.10;;;16.70;99.90;;;;;;4900124;29;20063;-83
2022/10/05 13:48:00;;;;;;;5.40;3.93;;;16.80;99.90;;;;;;4899890;29;20123;-83
2022/10/05 13:50:41;;;;;;;8.32;4.35;;;17.00;99.90;;;;;;4916516;29;20444;-82
2022/10/05 13:53:30;;;;;;;5.30;3.72;;;17.00;99.90;;;;;;4899999;29;20087;-81
2022/10/05 13:56:20;;;;;;;8.60;3.83;;;17.10;99.90;;;;;;4900067;29;20048;-82
2022/10/05 13:59:04;;;;;;;8.57;4.05;;;17.10;99.90;;;;;;4906847;29;20058;-84
2022/10/05 14:01:45;;;;;;;5.57;3.83;;;17.10;99.90;;;;;;4899808;29;20056;-83
2022/10/05 14:04:19;;;;;;;6.07;3.83;;;17.00;99.90;;;;;;4911442;29;20480;-83
2022/10/05 14:06:45;;;;;;;6.88;4.20;;;17.00;99.90;;;;;;4918565;29;20138;-82
2022/10/05 14:09:30;;;;;;;6.32;4.30;;;17.00;99.90;;;;;;4935792;29;20369;-82
2022/10/05 14:12:02;;;;;;;6.38;4.40;;;17.00;99.90;;;;;;4935854;29;20071;-82
2022/10/05 14:14:41;;;;;;;4.68;4.07;;;16.90;99.90;;;;;;4935549;29;20054;-82
2022/10/05 14:17:15;;;;;;;5.57;4.07;;;16.90;99.90;;;;;;4921931;29;20048;-84
2022/10/05 14:19:47;;;;;;;6.55;4.00;;;16.90;99.90;;;;;;4922605;29;20099;-81